Sanpo Maru No.5 — JL6343 — position and weather

sailwx.info

Track history (hours):
 
Tides and Currents Weather Stations Pressure Air Temp Water Temp Dewpoint Dewpoint Depression Visibility Wind Speed Wind Dir Waves Ship Positions

Sanpo Maru No.5

Last reported at 2016-May-31 13:33 UTC. Time now 2016-May-31 14:20 UTC.
Position N 35°35' E 139°52'.

Length 71 m; draft 4.5 m.

Type: Ship. MMSI: 431500283.

Date/timePositionNaut miles runAvg speedWind from/ knotsBaromVisibWave heightAir tempDewpointWater temp
2016-May-31 13:33N 35°35' E 139°52'0 0.0
2016-May-31 12:33N 35°35' E 139°52'0 0.0
2016-May-31 11:33N 35°35' E 139°52'0 0.0
2016-May-31 10:30N 35°35' E 139°52'0 0.0
2016-May-31 09:30N 35°35' E 139°52'0 0.0
2016-May-31 08:33N 35°35' E 139°52'0 0.0
2016-May-31 07:33N 35°35' E 139°52'0 0.0
2016-May-31 06:33N 35°35' E 139°52'9 4.4
2016-May-31 04:33N 35°27' E 139°46'6 5.9
2016-May-31 03:32N 35°24' E 139°40'0 0.0
2016-May-31 02:29N 35°24' E 139°40'0 0.0
2016-May-31 01:32N 35°24' E 139°40'0 0.0
2016-May-31 00:32N 35°24' E 139°40'1 1.4
2016-May-30 23:34N 35°23' E 139°41'1 1.2
2016-May-30 22:32N 35°22' E 139°41'0 0.0
2016-May-30 21:32N 35°22' E 139°41'0 0.0
2016-May-30 20:32N 35°22' E 139°41'7 7.5
2016-May-30 19:33N 35°16' E 139°46'9 9.4
2016-May-30 18:33N 35°07' E 139°45'  
2016-May-28 01:11N 34°51' E 139°42'1211.4
2016-May-28 00:10N 34°52' E 139°56'811.1
2016-May-27 23:28N 34°56' E 140°04'1010.4
2016-May-27 22:33N 35°01' E 140°14'12 9.3
2016-May-27 21:13N 35°10' E 140°26'710.1
2016-May-27 20:34N 35°15' E 140°31'1110.8
2016-May-27 19:31N 35°24' E 140°39'1111.6
2016-May-27 18:34N 35°32' E 140°48'1211.1
2016-May-27 17:31N 35°42' E 140°55'1111.0
2016-May-27 16:34N 35°53' E 140°56'2311.4
2016-May-27 14:33N 36°16' E 140°59'63 1.7
2016-May-26 02:09N 35°16' E 140°32'2212.6
2016-May-26 00:25N 35°01' E 140°13'1112.1
2016-May-25 23:30N 34°55' E 140°01'1111.4
2016-May-25 22:33N 34°52' E 139°49'27 0.6
2016-May-24 01:19N 34°59' E 139°18'1210.4
2016-May-24 00:12N 35°04' E 139°31'711.1
2016-May-23 23:33N 35°06' E 139°39'1110.8
2016-May-23 22:34N 35°15' E 139°46'1010.3
2016-May-23 21:34N 35°26' E 139°45'5 4.5
2016-May-23 20:33N 35°30' E 139°45'0 0.0
2016-May-23 19:33N 35°30' E 139°45'0 0.0
2016-May-23 18:30N 35°30' E 139°45'0 0.0
2016-May-23 17:33N 35°30' E 139°45'0 0.0
2016-May-23 16:33N 35°30' E 139°45'0 0.0
2016-May-23 15:33N 35°30' E 139°45'0 0.0
2016-May-23 14:33N 35°30' E 139°45'0 0.0
2016-May-23 13:33N 35°30' E 139°45'0 0.0
2016-May-23 12:33N 35°30' E 139°45'0 0.0
2016-May-23 11:33N 35°30' E 139°45'0 0.0
2016-May-23 10:33N 35°30' E 139°45'0 0.0
2016-May-23 09:33N 35°30' E 139°45'0 0.0
2016-May-23 08:33N 35°30' E 139°45'0 0.0
2016-May-23 07:30N 35°30' E 139°45'0 0.0
2016-May-23 06:33N 35°30' E 139°45'0 0.0
2016-May-23 05:33N 35°30' E 139°45'0 0.0
2016-May-23 04:33N 35°30' E 139°45'0 0.0
2016-May-23 03:33N 35°30' E 139°45'0 0.0
2016-May-23 02:33N 35°30' E 139°45'0 0.0
2016-May-23 01:33N 35°30' E 139°45'0 0.0
2016-May-23 00:33N 35°30' E 139°45'4 4.0
2016-May-22 23:31N 35°30' E 139°50'0 0.0
2016-May-22 22:31N 35°30' E 139°50'0 0.0
2016-May-22 21:31N 35°30' E 139°50'0 0.0
2016-May-22 20:31N 35°30' E 139°50'0 0.0
2016-May-22 19:31N 35°30' E 139°50'0 0.0
2016-May-22 18:31N 35°30' E 139°50'0 0.0
2016-May-22 17:31N 35°30' E 139°50'0 0.0
2016-May-22 16:31N 35°30' E 139°50'0 0.1
2016-May-22 15:31N 35°30' E 139°51'0 0.0
2016-May-22 14:31N 35°30' E 139°51'0 0.0
2016-May-22 13:31N 35°30' E 139°51'0 0.0
2016-May-22 12:28N 35°30' E 139°50'0 0.0
2016-May-22 11:31N 35°30' E 139°50'0 0.0
2016-May-22 10:31N 35°30' E 139°50'0 0.0
2016-May-22 09:31N 35°30' E 139°50'0 0.0
2016-May-22 08:31N 35°30' E 139°50'0 0.0
2016-May-22 07:31N 35°30' E 139°50'0 0.0
2016-May-22 06:31N 35°30' E 139°50'0 0.0
2016-May-22 05:31N 35°30' E 139°50'0 0.0
2016-May-22 04:31N 35°30' E 139°50'0 0.0
2016-May-22 03:31N 35°30' E 139°50'0 0.0
2016-May-22 02:31N 35°30' E 139°51'1010.5
2016-May-22 01:33N 35°35' E 140°02'3 2.9
2016-May-22 00:31N 35°36' E 140°05'0 0.0
2016-May-21 23:31N 35°36' E 140°05'0 0.0
2016-May-21 22:31N 35°36' E 140°05'6 6.4
2016-May-21 21:33N 35°31' E 140°01'1 0.9
2016-May-21 20:28N 35°30' E 140°00'0 0.0
2016-May-21 19:22N 35°30' E 140°00'0 0.0
2016-May-21 18:28N 35°30' E 140°00'0 0.0
2016-May-21 17:28N 35°30' E 140°00'0 0.0
2016-May-21 16:28N 35°30' E 140°00'0 0.0
2016-May-21 15:22N 35°30' E 140°00'0 0.0
2016-May-21 14:28N 35°30' E 140°00'  
Track history (hours):
 
Tides and Currents Weather Stations Pressure Air Temp Water Temp Dewpoint Dewpoint Depression Visibility Wind Speed Wind Dir Waves Ship Positions

Sanpo Maru No.5

Last reported at 2016-May-31 13:33 UTC. Time now 2016-May-31 14:20 UTC.
Position N 35°35' E 139°52'.

Length 71 m; draft 4.5 m.

Type: Ship. MMSI: 431500283.

Date/timePositionNaut miles runAvg speedWind from/ knotsBaromVisibWave heightAir tempDewpointWater temp
2016-May-31 13:33N 35°35' E 139°52'0 0.0
2016-May-31 12:33N 35°35' E 139°52'0 0.0
2016-May-31 11:33N 35°35' E 139°52'0 0.0
2016-May-31 10:30N 35°35' E 139°52'0 0.0
2016-May-31 09:30N 35°35' E 139°52'0 0.0
2016-May-31 08:33N 35°35' E 139°52'0 0.0
2016-May-31 07:33N 35°35' E 139°52'0 0.0
2016-May-31 06:33N 35°35' E 139°52'9 4.4
2016-May-31 04:33N 35°27' E 139°46'6 5.9
2016-May-31 03:32N 35°24' E 139°40'0 0.0
2016-May-31 02:29N 35°24' E 139°40'0 0.0
2016-May-31 01:32N 35°24' E 139°40'0 0.0
2016-May-31 00:32N 35°24' E 139°40'1 1.4
2016-May-30 23:34N 35°23' E 139°41'1 1.2
2016-May-30 22:32N 35°22' E 139°41'0 0.0
2016-May-30 21:32N 35°22' E 139°41'0 0.0
2016-May-30 20:32N 35°22' E 139°41'7 7.5
2016-May-30 19:33N 35°16' E 139°46'9 9.4
2016-May-30 18:33N 35°07' E 139°45'  
2016-May-28 01:11N 34°51' E 139°42'1211.4
2016-May-28 00:10N 34°52' E 139°56'811.1
2016-May-27 23:28N 34°56' E 140°04'1010.4
2016-May-27 22:33N 35°01' E 140°14'12 9.3
2016-May-27 21:13N 35°10' E 140°26'710.1
2016-May-27 20:34N 35°15' E 140°31'1110.8
2016-May-27 19:31N 35°24' E 140°39'1111.6
2016-May-27 18:34N 35°32' E 140°48'1211.1
2016-May-27 17:31N 35°42' E 140°55'1111.0
2016-May-27 16:34N 35°53' E 140°56'2311.4
2016-May-27 14:33N 36°16' E 140°59'63 1.7
2016-May-26 02:09N 35°16' E 140°32'2212.6
2016-May-26 00:25N 35°01' E 140°13'1112.1
2016-May-25 23:30N 34°55' E 140°01'1111.4
2016-May-25 22:33N 34°52' E 139°49'27 0.6
2016-May-24 01:19N 34°59' E 139°18'1210.4
2016-May-24 00:12N 35°04' E 139°31'711.1
2016-May-23 23:33N 35°06' E 139°39'1110.8
2016-May-23 22:34N 35°15' E 139°46'1010.3
2016-May-23 21:34N 35°26' E 139°45'5 4.5
2016-May-23 20:33N 35°30' E 139°45'0 0.0
2016-May-23 19:33N 35°30' E 139°45'0 0.0
2016-May-23 18:30N 35°30' E 139°45'0 0.0
2016-May-23 17:33N 35°30' E 139°45'0 0.0
2016-May-23 16:33N 35°30' E 139°45'0 0.0
2016-May-23 15:33N 35°30' E 139°45'0 0.0
2016-May-23 14:33N 35°30' E 139°45'0 0.0
2016-May-23 13:33N 35°30' E 139°45'0 0.0
2016-May-23 12:33N 35°30' E 139°45'0 0.0
2016-May-23 11:33N 35°30' E 139°45'0 0.0
2016-May-23 10:33N 35°30' E 139°45'0 0.0
2016-May-23 09:33N 35°30' E 139°45'0 0.0
2016-May-23 08:33N 35°30' E 139°45'0 0.0
2016-May-23 07:30N 35°30' E 139°45'0 0.0
2016-May-23 06:33N 35°30' E 139°45'0 0.0
2016-May-23 05:33N 35°30' E 139°45'0 0.0
2016-May-23 04:33N 35°30' E 139°45'0 0.0
2016-May-23 03:33N 35°30' E 139°45'0 0.0
2016-May-23 02:33N 35°30' E 139°45'0 0.0
2016-May-23 01:33N 35°30' E 139°45'0 0.0
2016-May-23 00:33N 35°30' E 139°45'4 4.0
2016-May-22 23:31N 35°30' E 139°50'0 0.0
2016-May-22 22:31N 35°30' E 139°50'0 0.0
2016-May-22 21:31N 35°30' E 139°50'0 0.0
2016-May-22 20:31N 35°30' E 139°50'0 0.0
2016-May-22 19:31N 35°30' E 139°50'0 0.0
2016-May-22 18:31N 35°30' E 139°50'0 0.0
2016-May-22 17:31N 35°30' E 139°50'0 0.0
2016-May-22 16:31N 35°30' E 139°50'0 0.1
2016-May-22 15:31N 35°30' E 139°51'0 0.0
2016-May-22 14:31N 35°30' E 139°51'0 0.0
2016-May-22 13:31N 35°30' E 139°51'0 0.0
2016-May-22 12:28N 35°30' E 139°50'0 0.0
2016-May-22 11:31N 35°30' E 139°50'0 0.0
2016-May-22 10:31N 35°30' E 139°50'0 0.0
2016-May-22 09:31N 35°30' E 139°50'0 0.0
2016-May-22 08:31N 35°30' E 139°50'0 0.0
2016-May-22 07:31N 35°30' E 139°50'0 0.0
2016-May-22 06:31N 35°30' E 139°50'0 0.0
2016-May-22 05:31N 35°30' E 139°50'0 0.0
2016-May-22 04:31N 35°30' E 139°50'0 0.0
2016-May-22 03:31N 35°30' E 139°50'0 0.0
2016-May-22 02:31N 35°30' E 139°51'1010.5
2016-May-22 01:33N 35°35' E 140°02'3 2.9
2016-May-22 00:31N 35°36' E 140°05'0 0.0
2016-May-21 23:31N 35°36' E 140°05'0 0.0
2016-May-21 22:31N 35°36' E 140°05'6 6.4
2016-May-21 21:33N 35°31' E 140°01'1 0.9
2016-May-21 20:28N 35°30' E 140°00'0 0.0
2016-May-21 19:22N 35°30' E 140°00'0 0.0
2016-May-21 18:28N 35°30' E 140°00'0 0.0
2016-May-21 17:28N 35°30' E 140°00'0 0.0
2016-May-21 16:28N 35°30' E 140°00'0 0.0
2016-May-21 15:22N 35°30' E 140°00'0 0.0
2016-May-21 14:28N 35°30' E 140°00'  

Dump ship's entire track history